createdAt,value
2023-05-11T00:04:19.980Z,15.04
2023-05-11T00:09:22.166Z,14.42
2023-05-11T00:14:24.656Z,13.76
2023-05-11T00:19:26.872Z,14.04
2023-05-11T00:24:29.665Z,14.65
2023-05-11T00:29:31.905Z,15.26
2023-05-11T00:34:34.707Z,15.05
2023-05-11T00:39:40.672Z,14.62
2023-05-11T00:44:43.513Z,14.32
2023-05-11T00:49:47.155Z,14.37
2023-05-11T00:54:49.891Z,14.30
2023-05-11T00:59:52.008Z,14.96
2023-05-11T01:04:54.200Z,15.18
2023-05-11T01:10:04.551Z,15.22
2023-05-11T01:15:40.537Z,14.93
2023-05-11T01:20:50.102Z,15.04
2023-05-11T01:26:11.669Z,15.25
2023-05-11T01:31:18.159Z,15.25
2023-05-11T01:36:25.526Z,15.63
2023-05-11T01:41:31.940Z,15.03
2023-05-11T01:46:34.719Z,14.94
2023-05-11T01:51:38.848Z,14.34
2023-05-11T01:56:44.004Z,14.29
2023-05-11T02:01:47.299Z,13.89
2023-05-11T02:06:52.465Z,13.71
2023-05-11T02:11:58.783Z,14.26
2023-05-11T02:17:05.626Z,14.10
2023-05-11T02:22:10.128Z,13.69
2023-05-11T02:27:13.171Z,13.87
2023-05-11T02:32:21.859Z,13.52
2023-05-11T02:37:28.420Z,13.40
2023-05-11T02:42:39.807Z,13.25
2023-05-11T02:47:52.079Z,13.40
2023-05-11T02:53:04.958Z,13.42
2023-05-11T02:58:07.659Z,13.47
2023-05-11T03:03:12.171Z,13.39
2023-05-11T03:08:14.592Z,13.42
2023-05-11T03:13:17.729Z,13.38
2023-05-11T03:18:22.424Z,13.71
2023-05-11T03:23:24.929Z,14.69
2023-05-11T03:28:29.421Z,14.06
2023-05-11T03:33:38.091Z,14.54
2023-05-11T03:38:45.283Z,14.90
2023-05-11T03:43:53.146Z,15.15
2023-05-11T03:48:58.115Z,15.47
2023-05-11T03:54:03.682Z,15.22
2023-05-11T03:59:06.678Z,14.81
2023-05-11T04:04:08.942Z,13.81
2023-05-11T04:09:11.317Z,13.67
2023-05-11T04:14:13.930Z,14.84
2023-05-11T04:19:17.500Z,14.74
2023-05-11T04:24:19.925Z,14.49
2023-05-11T04:29:22.171Z,14.19
2023-05-11T04:34:25.283Z,14.45
2023-05-11T04:39:28.139Z,14.15
2023-05-11T04:44:30.649Z,13.85
2023-05-11T04:49:32.894Z,13.67
2023-05-11T04:54:36.888Z,13.69
2023-05-11T04:59:39.168Z,13.43
2023-05-11T05:04:41.369Z,13.41
2023-05-11T05:09:45.327Z,13.23
2023-05-11T05:14:49.742Z,13.05
2023-05-11T05:19:52.161Z,13.07
2023-05-11T05:24:54.446Z,13.06
2023-05-11T05:29:56.752Z,13.11
2023-05-11T05:35:00.988Z,13.28
2023-05-11T05:40:05.484Z,13.04
2023-05-11T05:45:13.863Z,13.16
2023-05-11T05:50:17.369Z,13.42
2023-05-11T05:55:21.021Z,13.24
2023-05-11T06:00:25.174Z,13.49
2023-05-11T06:05:36.897Z,13.91
2023-05-11T06:10:39.526Z,14.24
2023-05-11T06:15:43.898Z,14.26
2023-05-11T06:20:59.649Z,14.33
2023-05-11T06:26:03.152Z,14.48
2023-05-11T06:31:07.680Z,14.50
2023-05-11T06:36:12.118Z,14.32
2023-05-11T06:41:14.401Z,13.90
2023-05-11T06:46:18.096Z,13.85
2023-05-11T06:51:24.168Z,14.41
2023-05-11T06:56:26.390Z,14.39
2023-05-11T07:01:29.076Z,14.53
2023-05-11T07:06:31.540Z,14.52
2023-05-11T07:11:33.757Z,14.59
2023-05-11T07:16:38.517Z,14.65
2023-05-11T07:21:40.849Z,14.57
2023-05-11T07:26:43.003Z,14.59
2023-05-11T07:31:45.408Z,14.07
2023-05-11T07:36:48.056Z,14.47
2023-05-11T07:41:50.296Z,14.86
2023-05-11T07:46:52.526Z,14.94
2023-05-11T07:51:55.044Z,15.09
2023-05-11T07:56:57.352Z,14.89
2023-05-11T08:02:00.048Z,15.67
2023-05-11T08:07:04.507Z,15.76
2023-05-11T08:12:06.938Z,15.73
2023-05-11T08:17:09.262Z,15.98
2023-05-11T08:22:11.592Z,15.86
2023-05-11T08:27:15.413Z,15.80
2023-05-11T08:32:17.834Z,15.80
2023-05-11T08:37:20.015Z,15.77
2023-05-11T08:42:27.076Z,15.65
2023-05-11T08:47:30.388Z,15.86
2023-05-11T08:52:32.945Z,16.08
2023-05-11T08:57:36.340Z,16.20
2023-05-11T09:02:39.420Z,16.28
2023-05-11T09:07:44.223Z,16.14
2023-05-11T09:12:47.101Z,16.05
2023-05-11T09:17:49.323Z,16.17
2023-05-11T09:22:52.113Z,16.36
2023-05-11T09:27:54.280Z,17.10
2023-05-11T09:33:02.522Z,17.28
2023-05-11T09:38:12.204Z,17.54
2023-05-11T09:43:22.492Z,17.63
2023-05-11T09:48:32.895Z,17.89
2023-05-11T09:53:45.680Z,17.97
2023-05-11T09:58:55.199Z,18.01
2023-05-11T10:04:13.368Z,18.03
2023-05-11T10:09:28.850Z,18.32
2023-05-11T10:14:32.891Z,18.35
2023-05-11T10:19:35.331Z,18.37
2023-05-11T10:24:38.795Z,18.40
2023-05-11T10:29:42.280Z,18.45
2023-05-11T10:34:50.758Z,18.45
2023-05-11T10:39:53.256Z,18.51
2023-05-11T10:45:22.773Z,18.49
2023-05-11T10:51:05.785Z,18.43
2023-05-11T10:56:31.124Z,18.65
2023-05-11T11:01:44.660Z,18.68
2023-05-11T11:06:47.161Z,18.85
2023-05-11T11:11:51.388Z,19.09
2023-05-11T11:17:18.306Z,19.04
2023-05-11T11:22:47.403Z,19.04
2023-05-11T11:27:49.723Z,18.98
2023-05-11T11:32:55.108Z,18.98
2023-05-11T11:38:04.795Z,18.82
2023-05-11T11:43:24.809Z,18.93
2023-05-11T11:48:41.679Z,18.79
2023-05-11T11:53:45.533Z,19.05
2023-05-11T11:58:47.903Z,19.06
2023-05-11T12:04:05.279Z,19.56
2023-05-11T12:09:08.789Z,19.51
2023-05-11T12:14:12.550Z,19.73
2023-05-11T12:19:24.718Z,19.62
2023-05-11T12:24:26.968Z,19.68
2023-05-11T12:29:29.500Z,19.72
2023-05-11T12:34:31.962Z,19.64
2023-05-11T12:39:36.227Z,19.62
2023-05-11T12:44:40.856Z,19.52
2023-05-11T12:49:43.646Z,18.81
2023-05-11T12:55:00.527Z,19.36
2023-05-11T13:00:16.897Z,19.64
2023-05-11T13:05:25.612Z,19.41
2023-05-11T13:10:28.563Z,19.52
2023-05-11T13:15:31.487Z,19.74
2023-05-11T13:20:34.565Z,19.63
2023-05-11T13:25:57.097Z,19.97
2023-05-11T13:31:01.616Z,19.94
2023-05-11T13:36:04.325Z,19.33
2023-05-11T13:41:07.463Z,19.61
2023-05-11T13:46:09.750Z,19.52
2023-05-11T13:51:12.376Z,19.68
2023-05-11T13:56:14.996Z,19.77
2023-05-11T14:01:17.385Z,19.79
2023-05-11T14:06:23.554Z,19.23
2023-05-11T14:11:26.349Z,19.40
2023-05-11T14:16:29.007Z,19.48
2023-05-11T14:21:32.637Z,19.55
2023-05-11T14:26:34.877Z,19.02
2023-05-11T14:31:37.265Z,19.08
2023-05-11T14:36:39.762Z,18.84
2023-05-11T14:41:42.077Z,19.05
2023-05-11T14:46:44.379Z,19.22
2023-05-11T14:51:46.727Z,19.34
2023-05-11T14:56:55.804Z,19.08
2023-05-11T15:01:59.214Z,19.48
2023-05-11T15:07:02.289Z,19.80
2023-05-11T15:12:04.927Z,20.27
2023-05-11T15:17:07.116Z,19.89
2023-05-11T15:22:09.461Z,19.31
2023-05-11T15:27:11.877Z,19.19
2023-05-11T15:32:15.634Z,18.96
2023-05-11T15:37:17.814Z,19.09
2023-05-11T15:42:20.109Z,19.04
2023-05-11T15:47:22.346Z,19.03
2023-05-11T15:52:24.494Z,18.81
2023-05-11T15:57:26.633Z,18.82
2023-05-11T16:02:29.610Z,18.85
2023-05-11T16:07:31.952Z,18.88
2023-05-11T16:12:34.078Z,18.62
2023-05-11T16:17:36.590Z,18.52
2023-05-11T16:22:39.246Z,18.48
2023-05-11T16:27:41.629Z,18.37
2023-05-11T16:32:44.153Z,18.22
2023-05-11T16:37:48.086Z,18.08
2023-05-11T16:42:50.923Z,18.06
2023-05-11T16:47:53.083Z,18.19
2023-05-11T16:52:55.296Z,18.30
2023-05-11T16:57:57.475Z,18.57
2023-05-11T17:03:00.218Z,18.52
2023-05-11T17:08:02.842Z,18.05
2023-05-11T17:13:05.130Z,18.23
2023-05-11T17:18:08.704Z,18.45
2023-05-11T17:23:10.982Z,18.39
2023-05-11T17:28:14.076Z,18.24
2023-05-11T17:33:16.536Z,17.63
2023-05-11T17:38:18.798Z,17.78
2023-05-11T17:43:20.972Z,17.68
2023-05-11T17:48:24.317Z,17.63
2023-05-11T17:53:27.475Z,17.50
2023-05-11T17:58:30.146Z,17.45
2023-05-11T18:03:32.570Z,17.37
2023-05-11T18:08:36.778Z,17.06
2023-05-11T18:13:38.950Z,16.96
2023-05-11T18:18:42.773Z,16.64
2023-05-11T18:23:45.420Z,16.62
2023-05-11T18:28:48.552Z,16.87
2023-05-11T18:33:51.022Z,16.77
2023-05-11T18:38:53.956Z,16.41
2023-05-11T18:43:56.296Z,16.39
2023-05-11T18:48:58.621Z,16.27
2023-05-11T18:54:01.626Z,16.32
2023-05-11T18:59:04.067Z,16.27
2023-05-11T19:04:09.137Z,16.14
2023-05-11T19:09:11.264Z,16.18
2023-05-11T19:14:14.814Z,16.58
2023-05-11T19:19:17.086Z,16.50
2023-05-11T19:24:19.285Z,16.44
2023-05-11T19:29:22.745Z,16.60
2023-05-11T19:34:25.360Z,16.39
2023-05-11T19:39:27.636Z,16.20
2023-05-11T19:44:33.200Z,16.08
2023-05-11T19:49:35.462Z,15.91
2023-05-11T19:54:37.726Z,15.83
2023-05-11T19:59:39.905Z,15.71
2023-05-11T20:04:45.649Z,15.66
2023-05-11T20:09:47.765Z,15.56
2023-05-11T20:14:50.297Z,15.61
2023-05-11T20:19:52.585Z,15.62
2023-05-11T20:24:55.018Z,15.53
2023-05-11T20:29:57.619Z,16.09
2023-05-11T20:35:00.294Z,16.68
2023-05-11T20:40:03.586Z,16.81
2023-05-11T20:45:07.632Z,17.05
2023-05-11T20:50:10.647Z,17.23
2023-05-11T20:55:12.882Z,17.16
2023-05-11T21:00:16.435Z,17.32
2023-05-11T21:05:18.914Z,17.29
2023-05-11T21:10:21.568Z,17.07
2023-05-11T21:15:23.785Z,17.03
2023-05-11T21:20:25.920Z,16.60
2023-05-11T21:25:28.170Z,16.58
2023-05-11T21:30:30.924Z,16.74
2023-05-11T21:35:33.327Z,16.81
2023-05-11T21:40:35.740Z,17.04
2023-05-11T21:45:37.858Z,17.15
2023-05-11T21:50:40.092Z,16.92
2023-05-11T21:55:42.274Z,16.91
2023-05-11T22:00:45.442Z,16.78
2023-05-11T22:05:47.858Z,16.63
2023-05-11T22:10:50.002Z,16.23
2023-05-11T22:15:52.748Z,15.89
2023-05-11T22:20:54.956Z,15.78
2023-05-11T22:25:57.026Z,16.01
2023-05-11T22:31:00.261Z,16.39
2023-05-11T22:36:02.556Z,16.48
2023-05-11T22:41:06.530Z,16.59
2023-05-11T22:46:08.926Z,16.66
2023-05-11T22:51:11.189Z,16.54
2023-05-11T22:56:13.576Z,16.07
2023-05-11T23:01:16.052Z,16.03
2023-05-11T23:06:18.505Z,16.35
2023-05-11T23:11:20.618Z,16.57
2023-05-11T23:16:22.882Z,16.80
2023-05-11T23:21:25.046Z,16.46
2023-05-11T23:26:27.328Z,16.74
2023-05-11T23:31:32.366Z,16.88
2023-05-11T23:36:35.208Z,17.02
2023-05-11T23:41:37.347Z,16.93
2023-05-11T23:46:39.471Z,16.82
2023-05-11T23:51:41.696Z,16.29
2023-05-11T23:56:44.368Z,15.71
